Time;durP1;ratioP1;P1;durP2;ratioP2;P2;SDS_P1;SDS_P2;PMS_P1;PMS_P2;Temp;Humidity;BMP_temperature;BMP_pressure;BME280_temperature;BME280_humidity;BME280_pressure;Samples;Min_cycle;Max_cycle;Signal;HPM_P1;HPM_P2
2022/05/21 00:02:07;;;;;;;2.47;1.80;;;17.70;99.90;;;;;;4976889;29;20546;-51
2022/05/21 00:04:36;;;;;;;1.73;1.63;;;17.60;99.90;;;;;;4977411;28;20448;-49
2022/05/21 00:07:05;;;;;;;2.13;1.93;;;17.60;99.90;;;;;;4977278;29;20531;-44
2022/05/21 00:09:31;;;;;;;2.30;1.60;;;17.50;99.90;;;;;;4978431;29;20503;-37
2022/05/21 00:11:58;;;;;;;2.30;1.33;;;17.50;99.90;;;;;;4976686;29;20482;-44
2022/05/21 00:14:28;;;;;;;1.73;1.47;;;17.40;99.90;;;;;;4977685;29;20493;-40
2022/05/21 00:16:56;;;;;;;2.10;1.90;;;17.30;99.90;;;;;;4977026;28;20479;-40
2022/05/21 00:19:26;;;;;;;3.87;1.60;;;17.30;99.90;;;;;;4977613;29;20432;-44
2022/05/21 00:21:58;;;;;;;1.80;1.43;;;17.20;99.90;;;;;;4977242;29;20495;-49
2022/05/21 00:24:25;;;;;;;2.33;1.33;;;17.20;99.90;;;;;;4976370;28;20439;-50
2022/05/21 00:26:53;;;;;;;2.23;1.67;;;17.10;99.90;;;;;;4976759;29;20462;-47
2022/05/21 00:29:20;;;;;;;3.23;1.77;;;17.10;99.90;;;;;;4976179;29;20476;-45
2022/05/21 00:31:48;;;;;;;5.80;1.90;;;17.10;99.90;;;;;;4970194;29;20463;-49
2022/05/21 00:34:16;;;;;;;1.33;1.23;;;17.10;99.90;;;;;;4976629;28;20524;-52
2022/05/21 00:36:42;;;;;;;1.90;1.43;;;17.10;99.90;;;;;;4976540;28;20507;-51
2022/05/21 00:39:09;;;;;;;2.53;1.30;;;17.20;99.90;;;;;;4976244;29;20460;-45
2022/05/21 00:41:36;;;;;;;1.40;1.30;;;17.20;99.90;;;;;;4968136;29;20456;-47
2022/05/21 00:44:04;;;;;;;2.30;1.77;;;17.20;99.90;;;;;;4976277;29;20552;-39
2022/05/21 00:46:35;;;;;;;3.17;1.80;;;17.10;99.90;;;;;;4975774;28;20455;-50
2022/05/21 00:49:07;;;;;;;2.10;1.63;;;17.00;99.90;;;;;;4975736;29;20479;-44
2022/05/21 00:51:41;;;;;;;2.00;1.80;;;17.00;99.90;;;;;;4976402;29;20470;-42
2022/05/21 00:54:10;;;;;;;1.60;1.50;;;17.00;99.90;;;;;;4976409;29;20447;-49
2022/05/21 00:56:44;;;;;;;1.50;1.40;;;17.00;99.90;;;;;;4975841;29;20487;-45
2022/05/21 01:01:59;;;;;;;4.03;1.43;;;16.90;99.90;;;;;;4976474;29;21259;-44
2022/05/21 01:04:29;;;;;;;1.90;1.23;;;16.90;99.90;;;;;;4976020;29;20455;-43
2022/05/21 01:07:00;;;;;;;2.10;1.80;;;16.80;99.90;;;;;;4976788;29;20510;-47
2022/05/21 01:09:27;;;;;;;1.70;1.50;;;16.70;99.90;;;;;;4975504;29;20447;-43
2022/05/21 01:11:55;;;;;;;2.40;2.00;;;16.60;99.90;;;;;;4975813;28;20483;-36
2022/05/21 01:14:25;;;;;;;2.57;1.90;;;16.60;99.90;;;;;;4976061;29;20441;-46
2022/05/21 01:16:52;;;;;;;3.07;1.57;;;16.60;99.90;;;;;;4975379;29;20451;-45
2022/05/21 01:19:19;;;;;;;2.03;1.83;;;16.60;99.90;;;;;;4975363;29;20575;-45
2022/05/21 01:21:47;;;;;;;1.43;1.33;;;16.60;99.90;;;;;;4975916;29;20439;-44
2022/05/21 01:24:15;;;;;;;1.97;1.63;;;16.50;99.90;;;;;;4976197;29;20491;-43
2022/05/21 01:26:42;;;;;;;1.60;1.50;;;16.60;99.90;;;;;;4976421;29;20428;-50
2022/05/21 01:29:23;;;;;;;2.00;1.80;;;16.50;99.90;;;;;;4969501;29;20483;-45
2022/05/21 01:31:51;;;;;;;1.83;1.63;;;16.50;99.90;;;;;;4968244;29;20413;-42
2022/05/21 01:34:18;;;;;;;2.20;1.67;;;16.50;99.90;;;;;;4958663;29;20697;-48
2022/05/21 01:36:46;;;;;;;3.83;1.90;;;16.40;99.90;;;;;;4966619;29;20457;-51
2022/05/21 01:39:14;;;;;;;2.63;1.87;;;16.40;99.90;;;;;;4967087;28;20480;-45
2022/05/21 01:41:42;;;;;;;1.57;1.37;;;16.30;99.90;;;;;;4962698;29;20452;-49
2022/05/21 01:46:53;;;;;;;3.23;1.77;;;16.20;99.90;;;;;;4960011;29;20571;-44
2022/05/21 01:49:26;;;;;;;4.03;1.57;;;16.20;99.90;;;;;;4960402;29;20441;-46
2022/05/21 01:51:53;;;;;;;10.33;2.10;;;16.20;99.90;;;;;;4961032;29;20437;-43
2022/05/21 01:54:21;;;;;;;2.57;1.53;;;16.20;99.90;;;;;;4960736;29;20445;-49
2022/05/21 01:56:47;;;;;;;2.10;1.83;;;16.20;99.90;;;;;;4960132;29;20472;-45
2022/05/21 01:59:14;;;;;;;2.30;2.13;;;16.20;99.90;;;;;;4959578;29;20515;-48
2022/05/21 02:01:44;;;;;;;1.70;1.20;;;16.20;99.90;;;;;;4972000;29;20459;-44
2022/05/21 02:04:14;;;;;;;2.30;1.97;;;16.20;99.90;;;;;;4979180;28;20530;-46
2022/05/21 02:06:40;;;;;;;1.83;1.70;;;16.10;99.90;;;;;;4977367;28;20467;-42
2022/05/21 02:09:07;;;;;;;2.10;1.90;;;16.10;99.90;;;;;;4975839;29;20464;-39
2022/05/21 02:11:35;;;;;;;2.50;1.93;;;16.10;99.90;;;;;;4978502;28;20494;-41
2022/05/21 02:14:02;;;;;;;3.40;2.13;;;16.10;99.90;;;;;;4978935;28;20443;-45
2022/05/21 02:16:29;;;;;;;2.20;2.00;;;16.20;99.90;;;;;;4979085;28;20443;-53
2022/05/21 02:18:56;;;;;;;3.33;2.00;;;16.10;99.90;;;;;;4978045;28;20507;-47
2022/05/21 02:21:22;;;;;;;2.17;1.97;;;16.10;99.90;;;;;;4978103;28;20471;-48
2022/05/21 02:23:49;;;;;;;1.60;1.40;;;16.10;99.90;;;;;;4978023;28;20468;-46
2022/05/21 02:26:17;;;;;;;2.10;1.90;;;16.10;99.90;;;;;;4978986;28;20865;-43
2022/05/21 02:28:45;;;;;;;2.70;2.20;;;16.10;99.90;;;;;;4977752;28;20475;-42
2022/05/21 02:31:12;;;;;;;2.10;1.80;;;16.00;99.90;;;;;;4959729;29;20440;-44
2022/05/21 02:33:39;;;;;;;3.10;1.70;;;16.00;99.90;;;;;;4959822;29;20481;-46
2022/05/21 02:36:06;;;;;;;2.57;2.10;;;16.00;99.90;;;;;;4964888;29;20455;-41
2022/05/21 02:41:17;;;;;;;2.37;2.17;;;16.00;99.90;;;;;;4979388;29;20513;-44
2022/05/21 02:43:46;;;;;;;3.53;1.80;;;16.00;99.90;;;;;;4979049;29;20486;-41
2022/05/21 02:46:14;;;;;;;2.07;1.80;;;16.00;99.90;;;;;;4978060;29;20459;-50
2022/05/21 02:48:42;;;;;;;4.97;2.10;;;15.90;99.90;;;;;;4973709;29;20969;-51
2022/05/21 02:51:10;;;;;;;2.23;2.03;;;15.80;99.90;;;;;;4974897;29;20515;-46
2022/05/21 02:53:37;;;;;;;2.23;1.90;;;15.80;99.90;;;;;;4978414;29;20459;-43
2022/05/21 02:56:05;;;;;;;1.87;1.47;;;15.80;99.90;;;;;;4976706;28;20428;-51
2022/05/21 02:58:32;;;;;;;4.30;2.53;;;15.70;99.90;;;;;;4975005;29;20546;-55
2022/05/21 03:01:01;;;;;;;2.63;2.30;;;15.70;99.90;;;;;;4974053;29;20431;-43
2022/05/21 03:03:27;;;;;;;3.30;2.10;;;15.60;99.90;;;;;;4978916;28;20472;-51
2022/05/21 03:05:56;;;;;;;4.10;2.10;;;15.70;99.90;;;;;;4978860;29;20475;-43
2022/05/21 03:11:08;;;;;;;6.53;1.87;;;15.60;99.90;;;;;;4977768;29;20458;-52
2022/05/21 03:13:35;;;;;;;6.53;1.77;;;15.60;99.90;;;;;;4969272;29;20448;-48
2022/05/21 03:16:03;;;;;;;2.93;1.80;;;15.50;99.90;;;;;;4978578;28;20444;-47
2022/05/21 03:18:30;;;;;;;4.90;2.50;;;15.50;99.90;;;;;;4978200;29;20468;-35
2022/05/21 03:21:03;;;;;;;2.73;2.30;;;15.50;99.90;;;;;;4972939;28;20839;-50
2022/05/21 03:23:32;;;;;;;4.90;1.93;;;15.50;99.90;;;;;;4978110;29;20416;-50
2022/05/21 03:25:59;;;;;;;2.27;2.03;;;15.40;99.90;;;;;;4978819;29;20503;-44
2022/05/21 03:28:26;;;;;;;2.67;1.97;;;15.40;99.90;;;;;;4974390;29;20523;-48
2022/05/21 03:30:53;;;;;;;6.00;3.97;;;15.30;99.90;;;;;;4978034;29;20451;-51
2022/05/21 03:33:20;;;;;;;1.93;1.73;;;15.30;99.90;;;;;;4977588;29;20476;-43
2022/05/21 03:35:48;;;;;;;4.50;1.93;;;15.20;99.90;;;;;;4977737;29;20444;-44
2022/05/21 03:38:18;;;;;;;3.23;1.80;;;15.10;99.90;;;;;;4977516;29;20487;-49
2022/05/21 03:40:46;;;;;;;5.47;2.37;;;15.10;99.90;;;;;;4978311;29;20784;-39
2022/05/21 03:43:12;;;;;;;2.13;1.50;;;15.10;99.90;;;;;;4978542;28;20565;-43
2022/05/21 03:45:40;;;;;;;5.37;1.63;;;15.10;99.90;;;;;;4978414;29;20504;-36
2022/05/21 03:48:13;;;;;;;2.33;1.60;;;15.00;99.90;;;;;;4978245;29;20507;-46
2022/05/21 03:50:41;;;;;;;3.47;1.93;;;15.00;99.90;;;;;;4977499;29;20988;-41
2022/05/21 03:53:13;;;;;;;2.97;1.60;;;15.00;99.90;;;;;;4971597;29;20431;-48
2022/05/21 03:55:40;;;;;;;2.10;1.80;;;15.00;99.90;;;;;;4977598;29;20481;-45
2022/05/21 03:58:07;;;;;;;2.03;1.70;;;14.90;99.90;;;;;;4977569;29;20470;-46
2022/05/21 04:00:37;;;;;;;6.70;2.00;;;14.90;99.90;;;;;;4977168;29;20461;-42
2022/05/21 04:03:03;;;;;;;3.20;1.60;;;14.80;99.90;;;;;;4977200;28;20468;-50
2022/05/21 04:05:30;;;;;;;3.20;1.73;;;14.80;99.90;;;;;;4976772;29;20440;-47
2022/05/21 04:07:58;;;;;;;1.67;1.30;;;14.80;99.90;;;;;;4967746;28;20475;-48
2022/05/21 04:10:25;;;;;;;1.73;1.53;;;14.80;99.90;;;;;;4966456;29;20951;-43
2022/05/21 04:12:55;;;;;;;1.47;1.00;;;14.70;99.90;;;;;;4969103;29;20479;-47
2022/05/21 04:15:22;;;;;;;2.20;1.57;;;14.60;99.90;;;;;;4977314;29;20491;-53
2022/05/21 04:17:51;;;;;;;1.57;1.20;;;14.60;99.90;;;;;;4971664;29;20451;-44
2022/05/21 04:20:20;;;;;;;1.60;1.43;;;14.50;99.90;;;;;;4968713;29;20484;-47
2022/05/21 04:22:46;;;;;;;1.60;1.10;;;14.40;99.90;;;;;;4969722;29;20451;-47
2022/05/21 04:25:15;;;;;;;2.73;1.53;;;14.30;99.90;;;;;;4968119;29;20790;-46
2022/05/21 04:27:42;;;;;;;1.37;1.23;;;14.30;99.90;;;;;;4977025;29;20472;-42
2022/05/21 04:30:14;;;;;;;2.83;1.30;;;14.20;99.90;;;;;;4973577;29;20471;-49
2022/05/21 04:32:41;;;;;;;2.00;1.47;;;14.30;99.90;;;;;;4973525;28;20452;-49
2022/05/21 04:35:08;;;;;;;3.00;1.47;;;14.40;99.90;;;;;;4976644;28;20456;-48
2022/05/21 04:37:36;;;;;;;4.27;1.57;;;14.40;99.90;;;;;;4976477;29;20455;-41
2022/05/21 04:40:04;;;;;;;2.50;1.53;;;14.40;99.90;;;;;;4976577;29;20484;-51
2022/05/21 04:42:32;;;;;;;1.70;1.57;;;14.40;99.90;;;;;;4976762;28;20492;-46
2022/05/21 04:45:01;;;;;;;3.17;1.43;;;14.30;99.90;;;;;;4976784;29;20463;-45
2022/05/21 04:47:30;;;;;;;1.80;1.50;;;14.40;99.90;;;;;;4976394;29;20969;-46
2022/05/21 04:49:57;;;;;;;1.77;1.50;;;14.40;99.90;;;;;;4976922;29;20467;-36
2022/05/21 04:52:23;;;;;;;1.90;1.40;;;14.30;99.90;;;;;;4976560;29;20451;-45
2022/05/21 04:54:52;;;;;;;8.10;1.50;;;14.40;99.90;;;;;;4973810;29;20444;-45
2022/05/21 04:57:21;;;;;;;3.50;1.93;;;14.50;99.90;;;;;;4976640;29;20471;-47
2022/05/21 04:59:49;;;;;;;3.63;1.43;;;14.60;99.90;;;;;;4976230;28;20909;-47
2022/05/21 05:02:18;;;;;;;2.00;1.20;;;14.60;99.90;;;;;;4976746;29;20459;-48
2022/05/21 05:04:44;;;;;;;4.17;1.87;;;14.60;99.90;;;;;;4976497;29;20523;-44
2022/05/21 05:07:12;;;;;;;6.13;2.27;;;14.60;99.90;;;;;;4975857;29;20448;-47
2022/05/21 05:09:40;;;;;;;1.67;1.27;;;14.60;99.90;;;;;;4976542;29;20467;-45
2022/05/21 05:12:08;;;;;;;3.37;1.90;;;14.60;99.90;;;;;;4975988;29;20515;-45
2022/05/21 05:14:35;;;;;;;5.23;2.03;;;14.50;99.90;;;;;;4976239;29;20748;-46
2022/05/21 05:17:03;;;;;;;2.40;1.90;;;14.50;99.90;;;;;;4976090;28;20510;-49
2022/05/21 05:19:31;;;;;;;1.60;1.43;;;14.40;99.90;;;;;;4975181;28;20490;-41
2022/05/21 05:21:57;;;;;;;3.83;2.20;;;14.40;99.90;;;;;;4976321;29;20432;-45
2022/05/21 05:24:28;;;;;;;3.30;1.93;;;14.40;99.90;;;;;;4976095;29;20475;-44
2022/05/21 05:26:57;;;;;;;2.47;1.70;;;14.40;99.90;;;;;;4975498;28;20847;-48
2022/05/21 05:29:23;;;;;;;1.87;1.43;;;14.30;99.90;;;;;;4975839;29;20428;-47
2022/05/21 05:31:50;;;;;;;2.30;1.83;;;14.40;99.90;;;;;;4975932;29;20467;-35
2022/05/21 05:34:18;;;;;;;2.80;1.40;;;14.20;99.90;;;;;;4975332;28;20439;-43
2022/05/21 05:36:47;;;;;;;1.73;1.63;;;14.10;99.90;;;;;;4975694;29;20447;-49
2022/05/21 05:39:14;;;;;;;3.50;1.73;;;14.00;99.90;;;;;;4975389;29;20488;-47
2022/05/21 05:41:41;;;;;;;1.93;1.50;;;14.00;99.90;;;;;;4975518;29;20443;-44
2022/05/21 05:44:09;;;;;;;8.57;2.30;;;14.00;99.90;;;;;;4975912;29;20432;-43
2022/05/21 05:46:36;;;;;;;2.73;1.83;;;14.00;99.90;;;;;;4976274;29;20444;-40
2022/05/21 05:49:06;;;;;;;4.50;1.90;;;14.00;99.90;;;;;;4975701;29;20503;-41
2022/05/21 05:51:36;;;;;;;3.70;2.07;;;14.00;99.90;;;;;;4976003;29;20428;-46
2022/05/21 05:54:03;;;;;;;5.47;2.07;;;14.10;99.90;;;;;;4976462;29;20503;-39
2022/05/21 05:56:29;;;;;;;3.10;1.60;;;14.10;99.90;;;;;;4976247;29;20459;-45
2022/05/21 06:01:42;;;;;;;2.23;1.60;;;14.20;99.90;;;;;;4968790;29;20435;-45
2022/05/21 06:04:09;;;;;;;4.23;2.60;;;14.30;99.90;;;;;;4975479;29;20491;-51
2022/05/21 06:06:37;;;;;;;4.10;1.77;;;14.30;99.90;;;;;;4975770;29;20512;-52
2022/05/21 06:09:05;;;;;;;2.70;1.50;;;14.30;99.90;;;;;;4976451;29;20464;-47
2022/05/21 06:11:37;;;;;;;3.60;1.53;;;14.40;99.90;;;;;;4975557;29;20432;-42
2022/05/21 06:14:04;;;;;;;1.57;1.37;;;14.50;99.90;;;;;;4965523;29;20483;-46
2022/05/21 06:16:31;;;;;;;4.13;1.80;;;14.70;99.90;;;;;;4957281;29;20431;-45
2022/05/21 06:18:57;;;;;;;2.80;1.60;;;14.80;99.90;;;;;;4957092;29;20485;-44
2022/05/21 06:21:24;;;;;;;1.70;1.40;;;15.00;99.90;;;;;;4964573;28;20455;-50
2022/05/21 06:23:53;;;;;;;4.93;1.80;;;15.20;99.90;;;;;;4975638;28;20448;-45
2022/05/21 06:26:20;;;;;;;3.00;1.70;;;15.30;99.90;;;;;;4976242;29;20463;-45
2022/05/21 06:28:48;;;;;;;4.77;1.90;;;15.30;99.90;;;;;;4976057;29;20710;-45
2022/05/21 06:31:17;;;;;;;3.03;2.10;;;15.50;99.90;;;;;;4977591;28;20973;-48
2022/05/21 06:33:44;;;;;;;2.70;1.60;;;15.50;99.90;;;;;;4979449;29;20443;-50
2022/05/21 06:36:16;;;;;;;3.83;2.27;;;15.50;99.90;;;;;;4979345;29;20451;-46
2022/05/21 06:38:44;;;;;;;7.00;2.93;;;15.50;99.90;;;;;;4978793;28;20431;-43
2022/05/21 06:41:13;;;;;;;5.00;2.63;;;15.60;99.90;;;;;;4973472;29;20544;-44
2022/05/21 06:43:40;;;;;;;4.40;2.57;;;15.50;99.90;;;;;;4978790;29;20440;-51
2022/05/21 06:46:07;;;;;;;4.80;2.00;;;15.40;99.90;;;;;;4978821;29;20839;-44
2022/05/21 06:48:34;;;;;;;3.93;2.40;;;15.50;99.90;;;;;;4978529;29;20448;-44
2022/05/21 06:51:05;;;;;;;3.97;2.97;;;15.60;99.90;;;;;;4978303;29;20451;-48
2022/05/21 06:53:32;;;;;;;2.07;1.63;;;15.60;99.90;;;;;;4968353;29;20449;-51
2022/05/21 06:55:59;;;;;;;4.13;2.30;;;14.90;99.90;;;;;;4959406;29;20524;-43
2022/05/21 06:58:27;;;;;;;3.40;1.67;;;15.80;99.90;;;;;;4960038;29;20429;-45
2022/05/21 07:00:54;;;;;;;3.63;1.40;;;16.00;99.90;;;;;;4959530;29;20622;-47
2022/05/21 07:03:20;;;;;;;5.43;1.60;;;15.80;99.90;;;;;;4959802;29;20432;-53
2022/05/21 07:08:31;;;;;;;1.80;1.40;;;15.80;99.90;;;;;;4960371;29;20445;-45
2022/05/21 07:10:59;;;;;;;1.90;1.40;;;15.90;99.90;;;;;;4965091;29;20514;-51
2022/05/21 07:13:28;;;;;;;5.10;1.70;;;16.10;99.90;;;;;;4971254;28;20451;-52
2022/05/21 07:15:56;;;;;;;2.90;1.63;;;16.30;99.90;;;;;;4967972;28;20451;-43
2022/05/21 07:18:25;;;;;;;12.10;1.77;;;16.40;99.90;;;;;;4977662;28;20424;-47
2022/05/21 07:20:51;;;;;;;2.10;1.60;;;16.40;99.90;;;;;;4963096;29;20490;-55
2022/05/21 07:23:20;;;;;;;2.07;1.60;;;16.70;99.90;;;;;;5044344;23;20516;-46
2022/05/21 07:25:48;;;;;;;2.30;1.33;;;16.80;99.90;;;;;;4979365;28;20459;-46
2022/05/21 07:28:23;;;;;;;3.30;1.50;;;16.90;99.90;;;;;;4974906;28;20456;-48
2022/05/21 07:30:51;;;;;;;2.90;1.43;;;17.10;99.90;;;;;;4968163;29;20467;-45
2022/05/21 07:33:20;;;;;;;4.40;1.23;;;17.10;99.90;;;;;;4975108;29;20468;-43
2022/05/21 07:35:47;;;;;;;2.47;1.87;;;17.30;99.90;;;;;;4979163;28;20458;-39
2022/05/21 07:38:16;;;;;;;3.50;1.63;;;17.60;99.90;;;;;;4979250;28;20468;-45
2022/05/21 07:40:44;;;;;;;2.47;1.37;;;17.90;99.90;;;;;;4968743;28;20572;-44
2022/05/21 07:43:12;;;;;;;3.67;1.73;;;18.00;99.90;;;;;;4978730;28;20484;-44
2022/05/21 07:45:39;;;;;;;3.20;1.70;;;18.00;99.90;;;;;;4978995;28;20471;-50
2022/05/21 07:48:09;;;;;;;2.70;1.70;;;18.30;99.90;;;;;;4973479;29;20461;-44
2022/05/21 07:50:40;;;;;;;4.03;1.60;;;19.20;99.90;;;;;;4968608;29;20539;-41
2022/05/21 07:53:11;;;;;;;2.20;1.60;;;20.20;99.90;;;;;;4964841;29;20452;-44
2022/05/21 07:55:38;;;;;;;3.33;1.77;;;21.20;99.90;;;;;;4973990;28;20441;-44
2022/05/21 07:58:05;;;;;;;2.67;2.27;;;21.60;99.90;;;;;;4968074;29;20472;-46
2022/05/21 08:00:32;;;;;;;5.13;1.60;;;21.90;99.90;;;;;;4946876;29;20468;-48
2022/05/21 08:02:59;;;;;;;3.30;2.07;;;21.90;99.90;;;;;;4967892;29;20436;-51
2022/05/21 08:05:27;;;;;;;2.37;2.10;;;22.00;99.90;;;;;;4972609;28;20472;-51
2022/05/21 08:07:53;;;;;;;2.77;1.57;;;22.20;99.70;;;;;;4963176;28;20431;-47
2022/05/21 08:10:22;;;;;;;2.23;1.37;;;22.80;98.20;;;;;;4979320;28;20440;-51
2022/05/21 08:12:49;;;;;;;2.60;1.50;;;22.80;97.60;;;;;;4965098;28;20460;-42
2022/05/21 08:15:17;;;;;;;7.77;2.70;;;22.80;96.40;;;;;;4962813;29;20558;-41
2022/05/21 08:17:44;;;;;;;3.30;1.73;;;22.50;96.40;;;;;;4973335;28;20466;-47
2022/05/21 08:20:12;;;;;;;3.70;2.23;;;22.60;96.60;;;;;;4963788;28;20495;-50
2022/05/21 08:28:13;;;;;;;3.43;1.60;;;22.30;97.60;;;;;;4959092;29;20496;-54
2022/05/21 08:30:40;;;;;;;5.47;1.97;;;21.60;98.10;;;;;;4965690;28;20493;-56
2022/05/21 08:33:07;;;;;;;4.93;2.07;;;21.10;98.10;;;;;;4948030;29;20448;-49
2022/05/21 08:35:38;;;;;;;5.93;1.63;;;20.60;99.90;;;;;;4953065;29;20941;-51
2022/05/21 08:38:06;;;;;;;1.87;1.67;;;20.10;99.90;;;;;;4953273;29;20446;-45
2022/05/21 08:40:41;;;;;;;4.53;2.17;;;19.70;99.90;;;;;;4959219;29;20468;-49
2022/05/21 08:43:16;;;;;;;2.40;1.63;;;19.60;99.90;;;;;;4958879;29;20463;-39
2022/05/21 08:45:52;;;;;;;3.83;2.60;;;19.40;99.90;;;;;;4950836;29;20492;-49
2022/05/21 08:48:20;;;;;;;2.20;1.70;;;19.10;99.90;;;;;;4958275;29;20509;-44
2022/05/21 08:50:52;;;;;;;4.50;1.50;;;18.80;99.90;;;;;;4958981;29;20471;-45
2022/05/21 08:53:25;;;;;;;3.40;1.80;;;18.70;99.90;;;;;;4958395;29;20469;-45
2022/05/21 08:55:55;;;;;;;1.37;1.23;;;18.70;99.90;;;;;;4958743;29;20433;-42
2022/05/21 08:58:28;;;;;;;2.27;1.40;;;18.50;99.90;;;;;;4948784;29;20988;-44
2022/05/21 09:00:56;;;;;;;3.43;2.00;;;18.30;99.90;;;;;;4950379;29;20473;-46
2022/05/21 09:03:24;;;;;;;3.37;1.60;;;18.00;99.90;;;;;;4957997;28;20480;-49
2022/05/21 09:06:03;;;;;;;2.27;1.73;;;17.60;99.90;;;;;;4958957;28;20928;-49
2022/05/21 09:08:39;;;;;;;5.00;2.17;;;17.10;99.90;;;;;;4977358;28;20436;-41
2022/05/21 09:11:11;;;;;;;7.03;2.23;;;16.60;99.90;;;;;;4967480;28;20539;-51
2022/05/21 09:13:44;;;;;;;3.57;2.20;;;16.40;99.90;;;;;;4978000;28;20423;-46
2022/05/21 09:18:57;;;;;;;4.10;2.33;;;16.30;99.90;;;;;;4977065;29;20426;-46
2022/05/21 09:21:28;;;;;;;6.33;3.13;;;16.40;99.90;;;;;;4977143;28;20468;-46
2022/05/21 09:23:58;;;;;;;3.40;2.20;;;16.60;99.90;;;;;;4977711;28;20440;-41
2022/05/21 09:26:27;;;;;;;5.73;2.53;;;17.10;99.90;;;;;;4977932;28;20507;-45
2022/05/21 09:29:13;;;;;;;3.80;2.40;;;17.20;99.90;;;;;;4977254;28;20456;-44
2022/05/21 09:31:40;;;;;;;4.30;2.20;;;16.90;99.90;;;;;;4970068;28;20538;-51
2022/05/21 09:34:16;;;;;;;3.93;2.63;;;16.80;99.90;;;;;;4972809;28;20447;-51
2022/05/21 09:36:43;;;;;;;4.23;2.47;;;16.60;99.90;;;;;;4965075;28;20474;-47
2022/05/21 09:39:11;;;;;;;4.83;2.43;;;16.40;99.90;;;;;;4977633;28;20478;-49
2022/05/21 09:41:38;;;;;;;8.57;2.53;;;16.30;99.90;;;;;;4977990;28;20472;-49
2022/05/21 09:47:11;;;;;;;3.23;2.80;;;15.80;99.90;;;;;;4977488;29;20487;-51
2022/05/21 09:49:39;;;;;;;7.17;3.07;;;15.70;99.90;;;;;;4970343;28;20462;-46
2022/05/21 09:52:07;;;;;;;3.70;2.77;;;15.60;99.90;;;;;;4974733;29;20471;-50
2022/05/21 09:54:37;;;;;;;6.00;3.23;;;15.80;99.90;;;;;;4975313;29;20468;-44
2022/05/21 09:57:05;;;;;;;7.83;3.77;;;16.20;99.90;;;;;;4977549;29;20475;-47
2022/05/21 09:59:34;;;;;;;6.97;3.60;;;16.70;99.90;;;;;;4977136;29;20459;-48
2022/05/21 10:02:14;;;;;;;5.13;3.40;;;16.90;99.90;;;;;;4977241;28;20483;-44
2022/05/21 10:04:48;;;;;;;6.90;3.50;;;16.90;99.90;;;;;;4968453;28;20426;-49
2022/05/21 10:12:59;;;;;;;5.57;4.60;;;17.20;99.90;;;;;;4957168;28;20510;-50
2022/05/21 10:15:30;;;;;;;5.40;4.67;;;17.20;99.90;;;;;;4973097;28;20514;-45
2022/05/21 10:18:04;;;;;;;5.10;4.23;;;17.50;99.90;;;;;;4979368;28;20471;-48
2022/05/21 10:20:36;;;;;;;6.80;6.13;;;17.70;99.90;;;;;;4965897;29;20447;-47
2022/05/21 10:23:09;;;;;;;8.37;6.83;;;17.80;99.90;;;;;;4979359;29;20503;-54
2022/05/21 10:25:52;;;;;;;10.23;5.40;;;18.00;99.90;;;;;;4973520;29;20416;-45
2022/05/21 10:28:33;;;;;;;6.47;5.03;;;18.50;99.90;;;;;;4981156;29;20486;-55
2022/05/21 10:31:24;;;;;;;8.73;5.13;;;18.90;99.90;;;;;;4981025;28;20412;-47
2022/05/21 10:34:03;;;;;;;5.73;5.10;;;19.10;99.90;;;;;;4980637;29;20592;-46
2022/05/21 10:36:43;;;;;;;7.13;5.20;;;19.50;99.90;;;;;;4976696;29;20436;-50
2022/05/21 10:39:29;;;;;;;5.63;4.60;;;19.80;99.90;;;;;;4978311;28;20447;-43
2022/05/21 10:42:17;;;;;;;7.57;4.63;;;20.20;99.90;;;;;;4971057;28;20467;-47
2022/05/21 10:44:54;;;;;;;5.03;4.53;;;20.50;99.90;;;;;;4972688;29;20539;-50
2022/05/21 10:47:34;;;;;;;6.33;5.23;;;20.80;99.90;;;;;;4982610;28;20430;-42
2022/05/21 10:50:28;;;;;;;4.80;3.87;;;20.80;99.90;;;;;;4999176;28;20432;-45
2022/05/21 10:53:13;;;;;;;9.30;5.63;;;20.80;99.90;;;;;;4999200;28;20458;-48
2022/05/21 10:55:47;;;;;;;6.73;4.90;;;20.90;99.90;;;;;;4999478;28;20470;-50
2022/05/21 10:58:40;;;;;;;4.73;4.23;;;20.40;99.90;;;;;;4999399;28;20451;-46
2022/05/21 11:01:14;;;;;;;5.17;3.80;;;19.90;99.90;;;;;;4999155;28;20486;-50
2022/05/21 11:03:49;;;;;;;6.67;4.50;;;19.50;99.90;;;;;;4999554;28;20524;-45
2022/05/21 11:06:25;;;;;;;4.30;3.67;;;19.20;99.90;;;;;;4999380;28;20442;-52
2022/05/21 11:09:03;;;;;;;6.70;4.00;;;18.80;99.90;;;;;;4999736;28;20470;-47
2022/05/21 11:11:45;;;;;;;5.33;3.70;;;18.50;99.90;;;;;;4999558;28;20435;-43
2022/05/21 11:14:19;;;;;;;5.10;3.97;;;18.30;99.90;;;;;;4999374;28;20474;-51
2022/05/21 11:16:51;;;;;;;5.40;3.67;;;18.30;99.90;;;;;;4999171;28;20443;-49
2022/05/21 11:19:24;;;;;;;6.87;4.00;;;18.40;99.90;;;;;;4999449;28;20463;-45
2022/05/21 11:21:56;;;;;;;3.97;3.50;;;18.60;99.90;;;;;;4999328;28;20514;-46
2022/05/21 11:24:31;;;;;;;6.00;3.70;;;18.70;99.90;;;;;;4998758;28;20533;-48
2022/05/21 11:27:00;;;;;;;6.93;3.80;;;18.70;99.90;;;;;;4999367;28;20431;-44
2022/05/21 11:29:38;;;;;;;7.60;3.40;;;18.70;99.90;;;;;;4998877;28;20475;-46
2022/05/21 11:37:46;;;;;;;3.93;3.50;;;18.00;99.90;;;;;;4979343;29;20443;-49
2022/05/21 11:43:55;;;;;;;8.50;4.07;;;17.90;99.90;;;;;;4998338;28;20450;-49
2022/05/21 11:46:34;;;;;;;5.03;3.50;;;18.40;99.90;;;;;;4998825;28;20466;-49
2022/05/21 11:49:29;;;;;;;5.43;4.23;;;18.70;99.90;;;;;;4998782;28;20443;-44
2022/05/21 11:51:58;;;;;;;5.73;3.63;;;19.10;99.90;;;;;;4998585;28;20474;-48
2022/05/21 11:55:02;;;;;;;6.70;4.23;;;19.40;99.90;;;;;;4991241;28;20474;-47
2022/05/21 11:57:35;;;;;;;6.70;3.40;;;19.40;99.90;;;;;;4979130;28;20434;-48
2022/05/21 12:00:04;;;;;;;4.60;3.53;;;19.30;99.90;;;;;;4979109;29;20479;-44
2022/05/21 12:02:33;;;;;;;5.20;3.60;;;19.50;99.90;;;;;;4979178;29;20480;-46
2022/05/21 12:05:01;;;;;;;9.40;4.00;;;19.40;99.90;;;;;;4979490;29;20448;-48
2022/05/21 12:07:49;;;;;;;5.17;3.80;;;19.00;99.90;;;;;;4980528;28;20444;-51
2022/05/21 12:10:19;;;;;;;7.90;3.67;;;18.70;99.90;;;;;;4988233;28;20478;-43
2022/05/21 12:13:12;;;;;;;6.00;3.80;;;18.60;99.90;;;;;;4998017;28;20459;-44
2022/05/21 12:15:41;;;;;;;9.00;3.63;;;18.60;99.90;;;;;;4998029;28;20455;-51
2022/05/21 12:18:31;;;;;;;4.50;3.50;;;18.50;99.90;;;;;;4998099;28;20441;-46
2022/05/21 12:20:58;;;;;;;3.73;3.33;;;18.40;99.90;;;;;;4997920;28;20490;-43
2022/05/21 12:23:58;;;;;;;6.97;4.33;;;18.30;99.90;;;;;;4996034;28;20467;-53
2022/05/21 12:26:27;;;;;;;6.47;3.73;;;18.30;99.90;;;;;;4995151;28;20494;-43
2022/05/21 12:29:07;;;;;;;4.53;2.77;;;18.10;99.90;;;;;;4996647;28;20434;-48
2022/05/21 12:31:40;;;;;;;5.27;4.00;;;18.10;99.90;;;;;;4994872;28;20484;-47
2022/05/21 12:34:33;;;;;;;4.40;3.63;;;18.00;99.90;;;;;;4997769;28;20435;-47
2022/05/21 12:37:05;;;;;;;3.63;3.30;;;17.90;99.90;;;;;;4970842;28;20470;-44
2022/05/21 12:39:36;;;;;;;4.23;3.33;;;17.80;99.90;;;;;;4995870;28;20450;-51
2022/05/21 12:42:13;;;;;;;6.00;4.23;;;17.70;99.90;;;;;;4995096;28;20490;-51
2022/05/21 12:44:45;;;;;;;4.77;3.23;;;17.60;99.90;;;;;;4997510;28;20454;-48
2022/05/21 12:47:13;;;;;;;4.90;3.40;;;17.60;99.90;;;;;;4997204;28;20474;-43
2022/05/21 12:49:48;;;;;;;7.70;3.70;;;17.60;99.90;;;;;;4998012;28;20443;-42
2022/05/21 12:52:25;;;;;;;3.93;2.83;;;17.80;99.90;;;;;;4997786;28;20470;-46
2022/05/21 12:55:21;;;;;;;4.60;3.50;;;17.90;99.90;;;;;;4997348;28;20807;-47
2022/05/21 12:57:49;;;;;;;6.63;3.53;;;18.00;99.90;;;;;;4997646;28;20869;-42
2022/05/21 13:00:20;;;;;;;4.70;2.80;;;18.20;99.90;;;;;;4998086;28;20431;-48
2022/05/21 13:02:49;;;;;;;3.53;3.03;;;18.40;99.90;;;;;;4997712;28;20490;-47
2022/05/21 13:05:25;;;;;;;5.00;2.87;;;18.70;99.90;;;;;;4997199;28;20439;-44
2022/05/21 13:07:53;;;;;;;3.47;2.07;;;18.90;99.90;;;;;;4997010;28;20481;-46
2022/05/21 13:10:26;;;;;;;7.20;2.70;;;19.00;99.90;;;;;;4997808;28;20443;-47
2022/05/21 13:12:56;;;;;;;4.90;2.50;;;19.00;99.90;;;;;;4997860;28;20459;-43
2022/05/21 13:15:30;;;;;;;7.73;2.20;;;19.20;99.90;;;;;;4997484;28;20485;-47
2022/05/21 13:18:10;;;;;;;7.27;2.77;;;19.20;99.90;;;;;;4987621;28;20506;-45
2022/05/21 13:20:41;;;;;;;3.47;2.93;;;19.40;99.90;;;;;;4997136;28;20459;-47
2022/05/21 13:23:39;;;;;;;4.60;2.90;;;19.60;99.90;;;;;;4996677;28;20489;-47
2022/05/21 13:26:07;;;;;;;4.33;2.90;;;19.60;99.90;;;;;;4996806;28;21059;-43
2022/05/21 13:28:34;;;;;;;5.43;3.10;;;19.40;99.90;;;;;;4996774;28;20471;-41
2022/05/21 13:31:14;;;;;;;2.67;2.40;;;19.30;99.90;;;;;;4996472;28;20439;-45
2022/05/21 13:33:47;;;;;;;3.57;1.90;;;19.20;99.90;;;;;;4987127;28;20497;-47
2022/05/21 13:36:15;;;;;;;3.20;2.07;;;19.20;99.90;;;;;;4996852;28;20432;-50
2022/05/21 13:38:48;;;;;;;4.60;1.60;;;19.30;99.90;;;;;;4996432;28;20447;-48
2022/05/21 13:41:22;;;;;;;4.93;1.70;;;19.20;99.90;;;;;;4995848;28;20454;-50
2022/05/21 13:43:51;;;;;;;3.10;1.83;;;19.30;99.90;;;;;;4997047;28;20433;-54
2022/05/21 13:46:25;;;;;;;4.77;1.57;;;19.20;99.90;;;;;;4996916;28;20440;-55